KOAK/OAK METAR and TAF weather

Enter ICAO airport designator
Station Type Date Time Source
KOAK METAR 2019/10/15 08:53 UTC NOAA

KOAK 150853Z 08004KT 10SM FEW008 09/08 A3005 RMK AO2 SLP174 T00940083 55000 $


Station Type Date Time Source
KOAK Decoded METAR 2019/10/15 08:53 UTC NOAA

METRO OAKLAND INTERNATIONAL AIRPORT , CA, United States (KOAK) 37-43N 122-14W 26M
Oct 15, 2019 - 04:53 AM EDT / 2019.10.15 0853 UTC
Wind: from the E (080 degrees) at 5 MPH (4 KT):0
Visibility: 10 mile(s):0
Sky conditions: mostly clear
Temperature: 48.9 F (9.4 C)
Dew Point: 46.9 F (8.3 C)
Relative Humidity: 92%
Pressure (altimeter): 30.05 in. Hg (1017 hPa)
Pressure tendency: 0.00 inches (0.0 hPa) lower than three hours ago
ob: KOAK 150853Z 08004KT 10SM FEW008 09/08 A3005 RMK AO2 SLP174 T00940083 55000
cycle: 9

Station Type Date Time Source
KOAK TAF 2019/10/15 06:22 UTC NOAA

TAF KOAK 150520Z 1506/1612 30005KT P6SM SKC
FM150800 30005KT P6SM SCT009
FM151100 VRB03KT P6SM BKN009
FM151700 24005KT P6SM FEW010
FM152100 29010KT P6SM SKC
FM160500 30005KT P6SM FEW010
FM160900 VRB03KT P6SM SCT010

Example: see airport list